createdAt,value
2023-05-10T00:04:47.363Z,10.4
2023-05-10T00:07:17.936Z,10.3
2023-05-10T00:09:58.538Z,10.1
2023-05-10T00:12:29.372Z,10.0
2023-05-10T00:14:59.975Z,9.9
2023-05-10T00:17:30.549Z,9.8
2023-05-10T00:20:01.251Z,9.7
2023-05-10T00:22:31.818Z,9.6
2023-05-10T00:25:12.361Z,9.6
2023-05-10T00:27:42.919Z,9.6
2023-05-10T00:30:13.626Z,9.5
2023-05-10T00:32:44.310Z,9.6
2023-05-10T00:35:14.970Z,9.6
2023-05-10T00:37:45.559Z,9.6
2023-05-10T00:40:26.106Z,9.7
2023-05-10T00:45:26.686Z,9.9
2023-05-10T00:47:57.269Z,10.0
2023-05-10T00:50:27.884Z,10.2
2023-05-10T00:52:58.450Z,10.2
2023-05-10T00:58:09.053Z,10.4
2023-05-10T01:00:39.668Z,10.5
2023-05-10T01:03:20.351Z,10.6
2023-05-10T01:05:51.079Z,10.6
2023-05-10T01:08:31.633Z,10.6
2023-05-10T01:11:02.180Z,10.6
2023-05-10T01:13:32.757Z,10.6
2023-05-10T01:16:03.430Z,10.6
2023-05-10T01:18:34.167Z,10.6
2023-05-10T01:21:04.747Z,10.6
2023-05-10T01:26:15.321Z,10.6
2023-05-10T01:28:45.889Z,10.6
2023-05-10T01:31:16.602Z,10.6
2023-05-10T01:33:47.308Z,10.5
2023-05-10T01:36:17.878Z,10.5
2023-05-10T01:38:58.456Z,10.5
2023-05-10T01:41:29.014Z,10.5
2023-05-10T01:43:59.616Z,10.5
2023-05-10T01:46:30.267Z,10.5
2023-05-10T01:49:00.933Z,10.4
2023-05-10T01:51:41.547Z,10.5
2023-05-10T01:54:12.103Z,10.5
2023-05-10T01:56:42.704Z,10.5
2023-05-10T01:59:13.269Z,10.5
2023-05-10T02:01:43.864Z,10.4
2023-05-10T02:06:54.452Z,10.5
2023-05-10T02:09:25.009Z,10.5
2023-05-10T02:11:55.622Z,10.5
2023-05-10T02:14:26.290Z,10.5
2023-05-10T02:16:56.929Z,10.5
2023-05-10T02:19:27.553Z,10.5
2023-05-10T02:22:08.135Z,10.5
2023-05-10T02:24:38.702Z,10.5
2023-05-10T02:27:09.242Z,10.5
2023-05-10T02:29:39.842Z,10.5
2023-05-10T02:32:10.416Z,10.5
2023-05-10T02:34:41.411Z,10.6
2023-05-10T02:37:21.981Z,10.5
2023-05-10T02:39:52.557Z,10.5
2023-05-10T02:42:23.131Z,10.5
2023-05-10T02:47:23.782Z,10.5
2023-05-10T02:50:04.462Z,10.5
2023-05-10T02:52:35.152Z,10.5
2023-05-10T02:55:05.751Z,10.5
2023-05-10T02:57:36.339Z,10.5
2023-05-10T03:00:06.911Z,10.5
2023-05-10T03:02:37.999Z,10.5
2023-05-10T03:05:18.756Z,10.5
2023-05-10T03:07:49.370Z,10.5
2023-05-10T03:10:19.946Z,10.5
2023-05-10T03:12:50.520Z,10.5
2023-05-10T03:15:21.212Z,10.5
2023-05-10T03:17:51.804Z,10.5
2023-05-10T03:20:32.483Z,10.5
2023-05-10T03:23:03.049Z,10.5
2023-05-10T03:28:13.637Z,10.4
2023-05-10T03:30:44.276Z,10.4
2023-05-10T03:33:14.936Z,10.4
2023-05-10T03:35:55.556Z,10.3
2023-05-10T03:38:26.878Z,10.3
2023-05-10T03:40:48.952Z,10.3
2023-05-10T03:43:19.492Z,10.2
2023-05-10T03:45:50.084Z,10.2
2023-05-10T03:48:30.658Z,10.2
2023-05-10T03:51:01.238Z,10.2
2023-05-10T03:53:31.843Z,10.2
2023-05-10T03:56:12.383Z,10.2
2023-05-10T03:58:42.950Z,10.2
2023-05-10T04:01:13.553Z,10.2
2023-05-10T04:03:54.207Z,10.1
2023-05-10T04:08:54.954Z,10.1
2023-05-10T04:11:25.547Z,10.0
2023-05-10T04:13:56.089Z,10.0
2023-05-10T04:16:26.701Z,10.0
2023-05-10T04:19:07.513Z,10.0
2023-05-10T04:21:38.082Z,10.0
2023-05-10T04:24:08.636Z,10.0
2023-05-10T04:26:39.211Z,10.0
2023-05-10T04:29:09.758Z,10.0
2023-05-10T04:31:40.329Z,10.0
2023-05-10T04:34:20.895Z,10.0
2023-05-10T04:36:51.512Z,10.0
2023-05-10T04:39:22.080Z,10.0
2023-05-10T04:41:52.845Z,10.0
2023-05-10T04:44:23.460Z,10.0
2023-05-10T04:49:34.041Z,9.8
2023-05-10T04:52:04.572Z,9.8
2023-05-10T04:54:35.126Z,9.8
2023-05-10T04:57:05.689Z,9.9
2023-05-10T04:59:36.251Z,9.8
2023-05-10T05:02:18.385Z,9.8
2023-05-10T05:04:49.266Z,9.8
2023-05-10T05:07:19.824Z,9.8
2023-05-10T05:09:50.383Z,9.8
2023-05-10T05:12:21.035Z,9.8
2023-05-10T05:14:51.649Z,9.7
2023-05-10T05:17:32.322Z,9.7
2023-05-10T05:20:03.090Z,9.7
2023-05-10T05:22:33.659Z,9.7
2023-05-10T05:25:04.205Z,9.7
2023-05-10T05:30:04.771Z,9.8
2023-05-10T05:32:45.643Z,9.8
2023-05-10T05:35:16.496Z,10.0
2023-05-10T05:37:47.140Z,9.9
2023-05-10T05:40:17.690Z,9.9
2023-05-10T05:42:48.256Z,9.8
2023-05-10T05:45:28.796Z,9.9
2023-05-10T05:47:59.460Z,9.9
2023-05-10T05:50:30.082Z,9.9
2023-05-10T05:53:00.608Z,9.9
2023-05-10T05:55:31.174Z,9.9
2023-05-10T05:58:01.744Z,9.9
2023-05-10T06:00:42.278Z,9.8
2023-05-10T06:03:12.872Z,9.9
2023-05-10T06:05:43.830Z,9.9
2023-05-10T06:10:44.384Z,9.9
2023-05-10T06:13:14.999Z,9.9
2023-05-10T06:15:55.635Z,10.0
2023-05-10T06:18:26.215Z,10.0
2023-05-10T06:20:56.930Z,9.9
2023-05-10T06:23:27.473Z,9.9
2023-05-10T06:25:58.045Z,9.9
2023-05-10T06:28:28.592Z,9.9
2023-05-10T06:31:19.183Z,9.8
2023-05-10T06:33:49.916Z,9.8
2023-05-10T06:36:20.493Z,9.7
2023-05-10T06:38:51.064Z,9.9
2023-05-10T06:41:23.231Z,10.0
2023-05-10T06:43:45.012Z,10.0
2023-05-10T06:46:25.607Z,10.1
2023-05-10T06:51:26.402Z,10.3
2023-05-10T06:53:56.944Z,10.3
2023-05-10T06:56:27.517Z,10.3
2023-05-10T06:59:08.086Z,10.3
2023-05-10T07:01:38.822Z,10.4
2023-05-10T07:04:09.686Z,10.4
2023-05-10T07:06:40.375Z,10.4
2023-05-10T07:09:10.926Z,10.4
2023-05-10T07:11:41.501Z,10.4
2023-05-10T07:14:22.329Z,10.5
2023-05-10T07:16:53.150Z,10.6
2023-05-10T07:19:23.777Z,10.5
2023-05-10T07:22:04.385Z,10.5
2023-05-10T07:24:34.938Z,10.6
2023-05-10T07:27:05.498Z,10.7
2023-05-10T07:32:16.105Z,10.8
2023-05-10T07:34:47.018Z,10.8
2023-05-10T07:37:17.703Z,10.8
2023-05-10T07:39:48.275Z,10.9
2023-05-10T07:42:18.817Z,11.0
2023-05-10T07:44:59.487Z,10.8
2023-05-10T07:47:30.072Z,10.6
2023-05-10T07:50:00.852Z,10.5
2023-05-10T07:52:31.440Z,10.5
2023-05-10T07:55:02.018Z,10.5
2023-05-10T07:57:42.586Z,10.6
2023-05-10T08:00:13.157Z,10.5
2023-05-10T08:02:43.790Z,10.7
2023-05-10T08:07:46.072Z,10.6
2023-05-10T08:12:56.701Z,10.4
2023-05-10T08:15:27.271Z,10.4
2023-05-10T08:17:57.902Z,10.5
2023-05-10T08:20:28.837Z,10.4
2023-05-10T08:22:59.410Z,10.5
2023-05-10T08:25:29.956Z,10.4
2023-05-10T08:28:11.825Z,10.4
2023-05-10T08:30:42.526Z,10.4
2023-05-10T08:33:13.146Z,10.4
2023-05-10T08:35:43.754Z,10.5
2023-05-10T08:38:14.322Z,10.5
2023-05-10T08:40:44.943Z,10.6
2023-05-10T08:43:25.674Z,10.6
2023-05-10T08:45:56.336Z,10.6
2023-05-10T08:48:26.948Z,10.7
2023-05-10T08:53:27.536Z,11.2
2023-05-10T08:56:08.099Z,11.1
2023-05-10T08:58:38.660Z,11.2
2023-05-10T09:01:09.279Z,11.3
2023-05-10T09:03:40.055Z,11.1
2023-05-10T09:06:10.850Z,11.4
2023-05-10T09:08:41.403Z,11.5
2023-05-10T09:11:21.969Z,11.6
2023-05-10T09:13:52.521Z,11.6
2023-05-10T09:16:23.171Z,11.8
2023-05-10T09:18:53.961Z,12.2
2023-05-10T09:21:24.751Z,11.7
2023-05-10T09:23:55.294Z,12.1
2023-05-10T09:26:35.867Z,12.2
2023-05-10T09:29:06.512Z,12.1
2023-05-10T09:34:08.286Z,12.0
2023-05-10T09:36:38.848Z,11.9
2023-05-10T09:39:09.401Z,12.1
2023-05-10T09:41:49.955Z,12.2
2023-05-10T09:44:20.553Z,12.0
2023-05-10T09:46:51.164Z,11.8
2023-05-10T09:49:21.744Z,11.9
2023-05-10T09:51:52.335Z,11.6
2023-05-10T09:54:22.923Z,11.5
2023-05-10T09:57:03.486Z,11.6
2023-05-10T09:59:34.046Z,11.9
2023-05-10T10:02:04.741Z,12.2
2023-05-10T10:04:35.480Z,12.4
2023-05-10T10:07:06.251Z,12.5
2023-05-10T10:09:46.840Z,12.7
2023-05-10T10:14:47.396Z,13.1
2023-05-10T10:17:17.966Z,13.4
2023-05-10T10:19:58.673Z,13.6
2023-05-10T10:22:22.338Z,13.6
2023-05-10T10:25:03.162Z,13.6
2023-05-10T10:27:34.165Z,13.4
2023-05-10T10:30:04.777Z,13.4
2023-05-10T10:32:35.435Z,13.4
2023-05-10T10:35:06.132Z,13.5
2023-05-10T10:37:36.990Z,13.8
2023-05-10T10:40:17.573Z,14.1
2023-05-10T10:42:48.148Z,14.2
2023-05-10T10:45:18.926Z,14.1
2023-05-10T10:47:51.976Z,14.2
2023-05-10T10:50:22.625Z,14.2
2023-05-10T10:55:33.194Z,13.9
2023-05-10T10:58:03.732Z,14.0
2023-05-10T11:00:34.329Z,13.9
2023-05-10T11:03:05.031Z,13.8
2023-05-10T11:05:35.656Z,13.6
2023-05-10T11:08:06.195Z,13.6
2023-05-10T11:10:46.778Z,13.6
2023-05-10T11:13:17.345Z,13.6
2023-05-10T11:15:47.900Z,13.7
2023-05-10T11:18:18.516Z,13.9
2023-05-10T11:20:49.273Z,14.1
2023-05-10T11:23:29.822Z,14.5
2023-05-10T11:26:00.391Z,14.3
2023-05-10T11:28:30.976Z,14.1
2023-05-10T11:31:01.592Z,13.8
2023-05-10T11:36:02.404Z,13.6
2023-05-10T11:38:42.971Z,13.3
2023-05-10T11:41:13.558Z,13.1
2023-05-10T11:43:44.161Z,12.7
2023-05-10T11:46:24.785Z,12.3
2023-05-10T11:48:55.489Z,12.0
2023-05-10T11:51:26.321Z,11.9
2023-05-10T11:53:57.653Z,11.8
2023-05-10T11:56:28.222Z,11.8
2023-05-10T11:59:08.771Z,12.0
2023-05-10T12:01:39.353Z,12.0
2023-05-10T12:04:10.197Z,11.9
2023-05-10T12:06:31.197Z,11.9
2023-05-10T12:09:31.813Z,12.1
2023-05-10T12:11:50.263Z,12.4
2023-05-10T12:16:50.880Z,13.1
2023-05-10T12:19:21.460Z,13.3
2023-05-10T12:22:02.040Z,13.3
2023-05-10T12:24:32.608Z,13.6
2023-05-10T12:29:33.180Z,14.3
2023-05-10T12:32:03.844Z,14.5
2023-05-10T12:34:34.689Z,14.8
2023-05-10T12:37:15.331Z,14.9
2023-05-10T12:39:46.124Z,15.0
2023-05-10T12:42:16.700Z,15.1
2023-05-10T12:44:47.308Z,15.2
2023-05-10T12:47:17.887Z,14.9
2023-05-10T12:49:48.544Z,14.5
2023-05-10T12:52:29.084Z,14.0
2023-05-10T12:57:29.687Z,13.2
2023-05-10T13:00:00.274Z,12.6
2023-05-10T13:02:30.866Z,12.2
2023-05-10T13:05:01.562Z,11.9
2023-05-10T13:07:42.227Z,11.9
2023-05-10T13:10:12.792Z,12.0
2023-05-10T13:12:43.435Z,12.0
2023-05-10T13:15:14.004Z,11.7
2023-05-10T13:17:44.574Z,11.4
2023-05-10T13:20:25.332Z,11.3
2023-05-10T13:22:55.911Z,11.1
2023-05-10T13:25:26.466Z,11.0
2023-05-10T13:27:57.019Z,11.0
2023-05-10T13:30:27.581Z,10.8
2023-05-10T13:32:58.139Z,10.8
2023-05-10T13:38:08.915Z,10.8
2023-05-10T13:40:42.752Z,10.6
2023-05-10T13:43:13.319Z,10.7
2023-05-10T13:45:43.893Z,10.8
2023-05-10T13:48:14.516Z,10.8
2023-05-10T13:50:58.325Z,10.9
2023-05-10T13:53:28.901Z,11.1
2023-05-10T13:55:59.437Z,11.1
2023-05-10T13:58:29.982Z,11.0
2023-05-10T14:01:00.536Z,11.0
2023-05-10T14:03:31.194Z,11.1
2023-05-10T14:06:12.110Z,11.1
2023-05-10T14:08:42.661Z,11.1
2023-05-10T14:11:13.226Z,11.0
2023-05-10T14:13:45.150Z,11.0
2023-05-10T14:18:45.747Z,10.6
2023-05-10T14:21:26.458Z,10.5
2023-05-10T14:23:57.010Z,10.4
2023-05-10T14:26:27.579Z,10.2
2023-05-10T14:28:58.280Z,10.3
2023-05-10T14:31:31.978Z,10.2
2023-05-10T14:36:42.914Z,9.9
2023-05-10T14:39:13.484Z,9.8
2023-05-10T14:41:44.092Z,9.8
2023-05-10T14:44:15.057Z,9.7
2023-05-10T14:46:45.676Z,9.6
2023-05-10T14:49:26.305Z,9.6
2023-05-10T14:51:56.886Z,9.5
2023-05-10T14:54:27.456Z,9.5
2023-05-10T14:59:28.025Z,9.6
2023-05-10T15:01:59.993Z,9.6
2023-05-10T15:04:41.977Z,9.5
2023-05-10T15:07:13.917Z,9.6
2023-05-10T15:09:44.472Z,9.7
2023-05-10T15:12:15.137Z,9.7
2023-05-10T15:14:45.732Z,9.8
2023-05-10T15:17:16.266Z,9.9
2023-05-10T15:19:56.984Z,9.8
2023-05-10T15:22:27.561Z,10.0
2023-05-10T15:24:58.170Z,10.0
2023-05-10T15:27:29.060Z,10.0
2023-05-10T15:29:59.622Z,10.1
2023-05-10T15:32:40.180Z,10.1
2023-05-10T15:35:10.933Z,10.2
2023-05-10T15:40:11.536Z,10.3
2023-05-10T15:42:42.092Z,10.3
2023-05-10T15:45:12.645Z,10.3
2023-05-10T15:47:55.392Z,10.3
2023-05-10T15:50:26.053Z,10.4
2023-05-10T15:52:56.619Z,10.5
2023-05-10T15:55:27.172Z,10.6
2023-05-10T15:57:57.755Z,10.7
2023-05-10T16:00:28.326Z,10.8
2023-05-10T16:03:08.996Z,10.8
2023-05-10T16:05:39.718Z,10.8
2023-05-10T16:08:10.383Z,10.8
2023-05-10T16:10:40.972Z,10.5
2023-05-10T16:13:11.537Z,10.5
2023-05-10T16:15:42.088Z,10.3
2023-05-10T16:20:52.744Z,10.1
2023-05-10T16:23:23.290Z,10.3
2023-05-10T16:25:53.857Z,10.2
2023-05-10T16:28:24.429Z,10.0
2023-05-10T16:30:55.014Z,10.0
2023-05-10T16:33:35.800Z,10.0
2023-05-10T16:36:06.557Z,10.0
2023-05-10T16:38:37.738Z,9.9
2023-05-10T16:41:08.348Z,9.6
2023-05-10T16:43:38.897Z,9.5
2023-05-10T16:46:09.491Z,9.5
2023-05-10T16:48:50.135Z,9.3
2023-05-10T16:51:20.736Z,9.2
2023-05-10T16:53:51.292Z,9.2
2023-05-10T16:56:21.917Z,9.2
2023-05-10T17:01:32.517Z,9.2
2023-05-10T17:04:03.382Z,9.2
2023-05-10T17:06:34.036Z,9.2
2023-05-10T17:09:04.620Z,9.2
2023-05-10T17:11:35.200Z,9.2
2023-05-10T17:14:05.769Z,9.2
2023-05-10T17:16:46.344Z,9.1
2023-05-10T17:19:17.023Z,9.1
2023-05-10T17:21:47.608Z,9.0
2023-05-10T17:24:18.187Z,9.0
2023-05-10T17:26:58.781Z,9.0
2023-05-10T17:29:29.402Z,9.0
2023-05-10T17:32:09.978Z,9.0
2023-05-10T17:34:40.578Z,9.0
2023-05-10T17:37:11.175Z,9.0
2023-05-10T17:42:11.738Z,8.9
2023-05-10T17:44:42.311Z,8.9
2023-05-10T17:47:22.866Z,8.9
2023-05-10T17:49:53.607Z,8.8
2023-05-10T17:52:24.174Z,8.8
2023-05-10T17:54:54.749Z,8.8
2023-05-10T18:00:05.563Z,8.8
2023-05-10T18:02:36.103Z,8.8
2023-05-10T18:05:06.787Z,8.8
2023-05-10T18:07:38.207Z,8.8
2023-05-10T18:10:08.792Z,8.8
2023-05-10T18:12:39.352Z,8.8
2023-05-10T18:15:19.919Z,8.8
2023-05-10T18:17:50.528Z,8.8
2023-05-10T18:22:51.258Z,8.7
2023-05-10T18:25:21.831Z,8.7
2023-05-10T18:27:52.509Z,8.7
2023-05-10T18:30:33.113Z,8.8
2023-05-10T18:33:03.814Z,8.8
2023-05-10T18:35:34.474Z,8.8
2023-05-10T18:38:05.059Z,8.8
2023-05-10T18:40:35.645Z,8.8
2023-05-10T18:43:06.213Z,8.8
2023-05-10T18:45:46.844Z,8.8
2023-05-10T18:48:17.466Z,8.8
2023-05-10T18:50:48.019Z,8.7
2023-05-10T18:53:18.595Z,8.6
2023-05-10T18:55:49.175Z,8.6
2023-05-10T18:58:29.735Z,8.7
2023-05-10T19:03:30.307Z,8.6
2023-05-10T19:06:00.886Z,8.6
2023-05-10T19:08:31.492Z,8.6
2023-05-10T19:11:02.105Z,8.6
2023-05-10T19:13:42.667Z,8.6
2023-05-10T19:16:14.079Z,8.7
2023-05-10T19:18:44.953Z,8.7
2023-05-10T19:21:17.427Z,8.7
2023-05-10T19:23:49.991Z,8.7
2023-05-10T19:26:21.761Z,8.7
2023-05-10T19:29:02.665Z,8.7
2023-05-10T19:31:33.263Z,8.7
2023-05-10T19:34:04.081Z,8.6
2023-05-10T19:36:34.933Z,8.6
2023-05-10T19:39:06.281Z,8.6
2023-05-10T19:44:16.837Z,8.6
2023-05-10T19:46:47.443Z,8.6
2023-05-10T19:49:18.152Z,8.6
2023-05-10T19:51:48.839Z,8.6
2023-05-10T19:54:19.402Z,8.5
2023-05-10T19:56:59.986Z,8.5
2023-05-10T19:59:32.475Z,8.5
2023-05-10T20:02:03.038Z,8.5
2023-05-10T20:04:33.685Z,8.5
2023-05-10T20:07:04.247Z,8.5
2023-05-10T20:09:34.916Z,8.5
2023-05-10T20:12:15.453Z,8.5
2023-05-10T20:14:46.102Z,8.5
2023-05-10T20:17:16.684Z,8.5
2023-05-10T20:19:47.393Z,8.5
2023-05-10T20:24:47.985Z,8.5
2023-05-10T20:27:28.537Z,8.6
2023-05-10T20:29:59.106Z,8.6
2023-05-10T20:32:30.159Z,8.6
2023-05-10T20:35:00.846Z,8.5
2023-05-10T20:37:31.395Z,8.5
2023-05-10T20:40:01.965Z,8.5
2023-05-10T20:42:42.546Z,8.5
2023-05-10T20:45:13.112Z,8.5
2023-05-10T20:47:43.664Z,8.6
2023-05-10T20:50:14.397Z,8.6
2023-05-10T20:52:44.960Z,8.6
2023-05-10T20:55:25.533Z,8.5
2023-05-10T20:57:56.073Z,8.5
2023-05-10T21:00:26.654Z,8.4
2023-05-10T21:05:27.291Z,8.4
2023-05-10T21:07:57.877Z,8.4
2023-05-10T21:10:38.423Z,8.4
2023-05-10T21:13:08.977Z,8.4
2023-05-10T21:15:39.543Z,8.4
2023-05-10T21:18:10.256Z,8.4
2023-05-10T21:20:41.048Z,8.4
2023-05-10T21:23:11.609Z,8.4
2023-05-10T21:25:54.626Z,8.3
2023-05-10T21:28:25.210Z,8.3
2023-05-10T21:30:55.773Z,8.3
2023-05-10T21:33:26.418Z,8.3
2023-05-10T21:35:57.033Z,8.2
2023-05-10T21:38:27.858Z,8.2
2023-05-10T21:41:08.412Z,8.2
2023-05-10T21:46:09.001Z,8.2
2023-05-10T21:48:39.719Z,8.2
2023-05-10T21:51:10.328Z,8.2
2023-05-10T21:53:50.869Z,8.2
2023-05-10T21:56:21.425Z,8.1
2023-05-10T21:58:51.971Z,8.1
2023-05-10T22:01:22.557Z,8.1
2023-05-10T22:03:53.216Z,8.1
2023-05-10T22:06:23.803Z,8.0
2023-05-10T22:09:04.384Z,8.0
2023-05-10T22:11:35.019Z,8.0
2023-05-10T22:14:05.563Z,8.0
2023-05-10T22:16:46.161Z,8.0
2023-05-10T22:19:16.931Z,8.0
2023-05-10T22:21:47.525Z,8.0
2023-05-10T22:26:58.137Z,8.0
2023-05-10T22:29:28.689Z,8.0
2023-05-10T22:31:59.243Z,7.9
2023-05-10T22:34:29.890Z,7.9
2023-05-10T22:37:00.445Z,8.0
2023-05-10T22:39:41.057Z,7.9
2023-05-10T22:42:11.610Z,7.9
2023-05-10T22:44:42.162Z,7.9
2023-05-10T22:47:12.727Z,7.9
2023-05-10T22:49:43.345Z,7.9
2023-05-10T22:52:13.953Z,7.8
2023-05-10T22:54:54.533Z,7.8
2023-05-10T22:57:25.059Z,7.8
2023-05-10T22:59:55.614Z,7.8
2023-05-10T23:02:26.597Z,7.8
2023-05-10T23:07:37.327Z,7.8
2023-05-10T23:10:07.890Z,7.7
2023-05-10T23:12:38.784Z,7.7
2023-05-10T23:15:12.622Z,7.7
2023-05-10T23:17:43.229Z,7.8
2023-05-10T23:20:14.037Z,7.8
2023-05-10T23:22:54.574Z,7.8
2023-05-10T23:25:25.222Z,7.8
2023-05-10T23:27:55.764Z,7.8
2023-05-10T23:30:26.350Z,7.8
2023-05-10T23:32:56.972Z,7.8
2023-05-10T23:35:27.675Z,7.8
2023-05-10T23:38:08.332Z,7.7
2023-05-10T23:40:38.896Z,7.7
2023-05-10T23:43:09.485Z,7.6
2023-05-10T23:48:10.074Z,7.6
2023-05-10T23:50:40.647Z,7.6
2023-05-10T23:53:21.232Z,7.6
2023-05-10T23:55:51.826Z,7.6
2023-05-10T23:58:22.382Z,7.6
